sensor_id;sensor_type;location;lat;lon;timestamp;pressure;altitude;pressure_sealevel;temperature
22269;BMP280;11303;50.772;19.670;2024-03-23T00:51:37;98220.25;;;8.36
22269;BMP280;11303;50.772;19.670;2024-03-23T00:55:39;98221.91;;;8.28
22269;BMP280;11303;50.772;19.670;2024-03-23T00:57:40;98225.91;;;8.26
22269;BMP280;11303;50.772;19.670;2024-03-23T00:59:40;98215.81;;;8.21
22269;BMP280;11303;50.772;19.670;2024-03-23T01:01:41;98220.13;;;8.16
22269;BMP280;11303;50.772;19.670;2024-03-23T01:03:41;98214.09;;;8.12
22269;BMP280;11303;50.772;19.670;2024-03-23T01:05:42;98214.69;;;8.06
22269;BMP280;11303;50.772;19.670;2024-03-23T01:07:42;98219.00;;;8.02
22269;BMP280;11303;50.772;19.670;2024-03-23T01:09:43;98212.66;;;7.99
22269;BMP280;11303;50.772;19.670;2024-03-23T01:11:44;98216.69;;;7.96
22269;BMP280;11303;50.772;19.670;2024-03-23T01:13:44;98208.84;;;7.93
22269;BMP280;11303;50.772;19.670;2024-03-23T01:15:51;98219.19;;;7.93
22269;BMP280;11303;50.772;19.670;2024-03-23T01:17:54;98220.91;;;7.89
22269;BMP280;11303;50.772;19.670;2024-03-23T01:19:55;98216.41;;;7.86
22269;BMP280;11303;50.772;19.670;2024-03-23T01:21:55;98202.31;;;7.83
22269;BMP280;11303;50.772;19.670;2024-03-23T01:23:56;98203.72;;;7.81
22269;BMP280;11303;50.772;19.670;2024-03-23T01:25:56;98200.28;;;7.76
22269;BMP280;11303;50.772;19.670;2024-03-23T01:27:57;98205.47;;;7.76
22269;BMP280;11303;50.772;19.670;2024-03-23T01:29:57;98193.63;;;7.75
22269;BMP280;11303;50.772;19.670;2024-03-23T01:31:58;98191.03;;;7.75
22269;BMP280;11303;50.772;19.670;2024-03-23T01:33:58;98202.78;;;7.73
22269;BMP280;11303;50.772;19.670;2024-03-23T01:35:59;98195.34;;;7.71
22269;BMP280;11303;50.772;19.670;2024-03-23T01:38:00;98194.16;;;7.69
22269;BMP280;11303;50.772;19.670;2024-03-23T01:40:00;98185.66;;;7.68
22269;BMP280;11303;50.772;19.670;2024-03-23T01:42:01;98185.22;;;7.66
22269;BMP280;11303;50.772;19.670;2024-03-23T01:44:05;98180.41;;;7.65
22269;BMP280;11303;50.772;19.670;2024-03-23T01:46:06;98179.22;;;7.62
22269;BMP280;11303;50.772;19.670;2024-03-23T01:48:07;98182.13;;;7.61
22269;BMP280;11303;50.772;19.670;2024-03-23T01:50:09;98176.88;;;7.57
22269;BMP280;11303;50.772;19.670;2024-03-23T01:52:11;98175.66;;;7.54
22269;BMP280;11303;50.772;19.670;2024-03-23T01:54:12;98179.34;;;7.53
22269;BMP280;11303;50.772;19.670;2024-03-23T01:56:12;98183.03;;;7.52
22269;BMP280;11303;50.772;19.670;2024-03-23T01:58:13;98175.59;;;7.51
22269;BMP280;11303;50.772;19.670;2024-03-23T02:00:14;98170.31;;;7.47
22269;BMP280;11303;50.772;19.670;2024-03-23T02:02:15;98180.34;;;7.49
22269;BMP280;11303;50.772;19.670;2024-03-23T02:04:18;98168.81;;;7.46
22269;BMP280;11303;50.772;19.670;2024-03-23T02:06:18;98177.00;;;7.48
22269;BMP280;11303;50.772;19.670;2024-03-23T02:08:20;98169.16;;;7.45
22269;BMP280;11303;50.772;19.670;2024-03-23T02:10:21;98161.38;;;7.45
22269;BMP280;11303;50.772;19.670;2024-03-23T02:12:21;98165.47;;;7.46
22269;BMP280;11303;50.772;19.670;2024-03-23T02:14:22;98158.03;;;7.44
22269;BMP280;11303;50.772;19.670;2024-03-23T02:16:22;98168.38;;;7.44
22269;BMP280;11303;50.772;19.670;2024-03-23T02:18:23;98160.63;;;7.44
22269;BMP280;11303;50.772;19.670;2024-03-23T02:20:24;98165.38;;;7.42
22269;BMP280;11303;50.772;19.670;2024-03-23T02:22:25;98159.47;;;7.42
22269;BMP280;11303;50.772;19.670;2024-03-23T02:24:25;98155.38;;;7.40
22269;BMP280;11303;50.772;19.670;2024-03-23T02:26:26;98150.22;;;7.40
22269;BMP280;11303;50.772;19.670;2024-03-23T02:28:27;98153.13;;;7.39
22269;BMP280;11303;50.772;19.670;2024-03-23T02:30:27;98136.41;;;7.36
22269;BMP280;11303;50.772;19.670;2024-03-23T02:32:28;98133.09;;;7.36
22269;BMP280;11303;50.772;19.670;2024-03-23T02:34:28;98142.03;;;7.38
22269;BMP280;11303;50.772;19.670;2024-03-23T02:36:29;98126.41;;;7.35
22269;BMP280;11303;50.772;19.670;2024-03-23T02:38:31;98124.59;;;7.35
22269;BMP280;11303;50.772;19.670;2024-03-23T02:40:32;98124.59;;;7.35
22269;BMP280;11303;50.772;19.670;2024-03-23T02:42:32;98121.22;;;7.35
22269;BMP280;11303;50.772;19.670;2024-03-23T02:44:33;98120.47;;;7.34
22269;BMP280;11303;50.772;19.670;2024-03-23T02:46:33;98108.31;;;7.35
22269;BMP280;11303;50.772;19.670;2024-03-23T02:48:34;98118.97;;;7.33
22269;BMP280;11303;50.772;19.670;2024-03-23T02:50:34;98114.13;;;7.32
22269;BMP280;11303;50.772;19.670;2024-03-23T02:52:36;98115.22;;;7.31
22269;BMP280;11303;50.772;19.670;2024-03-23T02:54:37;98111.84;;;7.30
22269;BMP280;11303;50.772;19.670;2024-03-23T02:56:37;98109.63;;;7.29
22269;BMP280;11303;50.772;19.670;2024-03-23T02:58:41;98103.72;;;7.28
22269;BMP280;11303;50.772;19.670;2024-03-23T03:00:41;98091.53;;;7.29
22269;BMP280;11303;50.772;19.670;2024-03-23T03:02:42;98095.97;;;7.28
22269;BMP280;11303;50.772;19.670;2024-03-23T03:04:42;98089.59;;;7.26
22269;BMP280;11303;50.772;19.670;2024-03-23T03:06:47;98080.34;;;7.25
22269;BMP280;11303;50.772;19.670;2024-03-23T03:08:47;98080.69;;;7.23
22269;BMP280;11303;50.772;19.670;2024-03-23T03:10:48;98069.91;;;7.21
22269;BMP280;11303;50.772;19.670;2024-03-23T03:12:48;98071.00;;;7.20
22269;BMP280;11303;50.772;19.670;2024-03-23T03:14:49;98073.59;;;7.20
22269;BMP280;11303;50.772;19.670;2024-03-23T03:16:50;98060.97;;;7.18
22269;BMP280;11303;50.772;19.670;2024-03-23T03:18:50;98064.66;;;7.17
22269;BMP280;11303;50.772;19.670;2024-03-23T03:20:54;98066.81;;;7.15
22269;BMP280;11303;50.772;19.670;2024-03-23T03:22:55;98057.13;;;7.12
22269;BMP280;11303;50.772;19.670;2024-03-23T03:24:55;98057.88;;;7.13
22269;BMP280;11303;50.772;19.670;2024-03-23T03:26:56;98058.53;;;7.10
22269;BMP280;11303;50.772;19.670;2024-03-23T03:28:58;98050.78;;;7.10
22269;BMP280;11303;50.772;19.670;2024-03-23T03:30:59;98048.19;;;7.10
22269;BMP280;11303;50.772;19.670;2024-03-23T03:33:00;98050.78;;;7.10
22269;BMP280;11303;50.772;19.670;2024-03-23T03:35:01;98047.88;;;7.11
22269;BMP280;11303;50.772;19.670;2024-03-23T03:37:01;98048.94;;;7.10
22269;BMP280;11303;50.772;19.670;2024-03-23T03:39:02;98046.34;;;7.10
22269;BMP280;11303;50.772;19.670;2024-03-23T03:41:04;98043.78;;;7.10
22269;BMP280;11303;50.772;19.670;2024-03-23T03:43:06;98040.44;;;7.10
22269;BMP280;11303;50.772;19.670;2024-03-23T03:45:07;98035.59;;;7.08
22269;BMP280;11303;50.772;19.670;2024-03-23T03:47:08;98024.84;;;7.06
22269;BMP280;11303;50.772;19.670;2024-03-23T03:49:08;98023.75;;;7.07
22269;BMP280;11303;50.772;19.670;2024-03-23T03:51:09;98030.75;;;7.07
22269;BMP280;11303;50.772;19.670;2024-03-23T03:53:09;98021.50;;;7.06
22269;BMP280;11303;50.772;19.670;2024-03-23T03:55:12;98025.91;;;7.05
22269;BMP280;11303;50.772;19.670;2024-03-23T03:57:13;98020.75;;;7.05
22269;BMP280;11303;50.772;19.670;2024-03-23T03:59:15;98011.84;;;7.02
22269;BMP280;11303;50.772;19.670;2024-03-23T04:01:15;98022.16;;;7.02
22269;BMP280;11303;50.772;19.670;2024-03-23T04:03:16;98019.16;;;7.00
22269;BMP280;11303;50.772;19.670;2024-03-23T04:05:16;98017.66;;;6.99
22269;BMP280;11303;50.772;19.670;2024-03-23T04:07:17;98016.16;;;6.98
22269;BMP280;11303;50.772;19.670;2024-03-23T04:09:18;98022.09;;;6.99
22269;BMP280;11303;50.772;19.670;2024-03-23T04:11:19;98016.91;;;6.99
22269;BMP280;11303;50.772;19.670;2024-03-23T04:13:19;98011.00;;;6.98
22269;BMP280;11303;50.772;19.670;2024-03-23T04:15:20;98018.75;;;6.98
22269;BMP280;11303;50.772;19.670;2024-03-23T04:17:20;98015.41;;;6.98
22269;BMP280;11303;50.772;19.670;2024-03-23T04:19:21;98023.47;;;6.96
22269;BMP280;11303;50.772;19.670;2024-03-23T04:21:22;98019.41;;;6.95
22269;BMP280;11303;50.772;19.670;2024-03-23T04:23:23;98007.56;;;6.94
22269;BMP280;11303;50.772;19.670;2024-03-23T04:25:23;98012.72;;;6.94
22269;BMP280;11303;50.772;19.670;2024-03-23T04:27:24;97999.06;;;6.94
22269;BMP280;11303;50.772;19.670;2024-03-23T04:29:25;97998.28;;;6.93
22269;BMP280;11303;50.772;19.670;2024-03-23T04:31:27;97990.53;;;6.93
22269;BMP280;11303;50.772;19.670;2024-03-23T04:33:27;97987.94;;;6.93
22269;BMP280;11303;50.772;19.670;2024-03-23T04:35:28;97994.31;;;6.96
22269;BMP280;11303;50.772;19.670;2024-03-23T04:37:29;97986.22;;;6.97
22269;BMP280;11303;50.772;19.670;2024-03-23T04:39:29;97978.81;;;6.96
22269;BMP280;11303;50.772;19.670;2024-03-23T04:41:30;97973.63;;;6.96
22269;BMP280;11303;50.772;19.670;2024-03-23T04:43:30;97966.63;;;6.96
22269;BMP280;11303;50.772;19.670;2024-03-23T04:45:31;97963.31;;;6.96
22269;BMP280;11303;50.772;19.670;2024-03-23T04:47:32;97954.81;;;6.95
22269;BMP280;11303;50.772;19.670;2024-03-23T04:49:32;97958.13;;;6.96
22269;BMP280;11303;50.772;19.670;2024-03-23T04:51:36;97956.28;;;6.96
22269;BMP280;11303;50.772;19.670;2024-03-23T04:53:38;97952.66;;;6.97
22269;BMP280;11303;50.772;19.670;2024-03-23T04:55:38;97956.75;;;6.98
22269;BMP280;11303;50.772;19.670;2024-03-23T04:57:39;97948.22;;;6.98
22269;BMP280;11303;50.772;19.670;2024-03-23T04:59:39;97955.22;;;6.97
22269;BMP280;11303;50.772;19.670;2024-03-23T05:01:40;97947.47;;;6.97
22269;BMP280;11303;50.772;19.670;2024-03-23T05:03:42;97954.16;;;6.98
22269;BMP280;11303;50.772;19.670;2024-03-23T05:05:43;97942.22;;;6.94
22269;BMP280;11303;50.772;19.670;2024-03-23T05:07:43;97954.81;;;6.95
22269;BMP280;11303;50.772;19.670;2024-03-23T05:09:44;97949.66;;;6.95
22269;BMP280;11303;50.772;19.670;2024-03-23T05:11:44;97953.28;;;6.94
22269;BMP280;11303;50.772;19.670;2024-03-23T05:13:45;97937.78;;;6.94
22269;BMP280;11303;50.772;19.670;2024-03-23T05:15:54;97942.97;;;6.94
22269;BMP280;11303;50.772;19.670;2024-03-23T05:17:54;97939.31;;;6.95
22269;BMP280;11303;50.772;19.670;2024-03-23T05:19:55;97943.38;;;6.96
22269;BMP280;11303;50.772;19.670;2024-03-23T05:21:55;97940.06;;;6.96
22269;BMP280;11303;50.772;19.670;2024-03-23T05:23:56;97930.47;;;6.96
22269;BMP280;11303;50.772;19.670;2024-03-23T05:25:56;97925.75;;;6.98
22269;BMP280;11303;50.772;19.670;2024-03-23T05:27:57;97918.31;;;6.97
22269;BMP280;11303;50.772;19.670;2024-03-23T05:29:58;97920.97;;;7.00
22269;BMP280;11303;50.772;19.670;2024-03-23T05:31:58;97927.22;;;6.99
22269;BMP280;11303;50.772;19.670;2024-03-23T05:33:59;97925.75;;;6.98
22269;BMP280;11303;50.772;19.670;2024-03-23T05:36:01;97925.41;;;7.00
22269;BMP280;11303;50.772;19.670;2024-03-23T05:38:01;97921.72;;;7.01
22269;BMP280;11303;50.772;19.670;2024-03-23T05:40:03;97926.56;;;7.02
22269;BMP280;11303;50.772;19.670;2024-03-23T05:42:04;97915.16;;;7.04
22269;BMP280;11303;50.772;19.670;2024-03-23T05:44:06;97922.97;;;7.07
22269;BMP280;11303;50.772;19.670;2024-03-23T05:46:07;97919.72;;;7.10
22269;BMP280;11303;50.772;19.670;2024-03-23T05:48:10;97915.66;;;7.09
22269;BMP280;11303;50.772;19.670;2024-03-23T05:50:11;97906.06;;;7.10
22269;BMP280;11303;50.772;19.670;2024-03-23T05:52:13;97914.22;;;7.12
22269;BMP280;11303;50.772;19.670;2024-03-23T05:54:13;97915.34;;;7.11
22269;BMP280;11303;50.772;19.670;2024-03-23T05:56:19;97912.75;;;7.11
22269;BMP280;11303;50.772;19.670;2024-03-23T05:58:20;97914.22;;;7.12
22269;BMP280;11303;50.772;19.670;2024-03-23T06:00:20;97909.06;;;7.12
22269;BMP280;11303;50.772;19.670;2024-03-23T06:02:22;97906.91;;;7.14
22269;BMP280;11303;50.772;19.670;2024-03-23T06:04:22;97904.34;;;7.14
22269;BMP280;11303;50.772;19.670;2024-03-23T06:06:23;97910.31;;;7.18
22269;BMP280;11303;50.772;19.670;2024-03-23T06:08:24;97905.13;;;7.18
22269;BMP280;11303;50.772;19.670;2024-03-23T06:10:24;97895.66;;;7.22
22269;BMP280;11303;50.772;19.670;2024-03-23T06:12:25;97894.31;;;7.28
22269;BMP280;11303;50.772;19.670;2024-03-23T06:14:26;97896.75;;;7.37
22269;BMP280;11303;50.772;19.670;2024-03-23T06:16:26;97885.38;;;7.42
22269;BMP280;11303;50.772;19.670;2024-03-23T06:18:28;97884.28;;;7.43
22269;BMP280;11303;50.772;19.670;2024-03-23T06:20:28;97881.47;;;7.48
22269;BMP280;11303;50.772;19.670;2024-03-23T06:22:29;97887.72;;;7.47
22269;BMP280;11303;50.772;19.670;2024-03-23T06:24:30;97883.63;;;7.46
22269;BMP280;11303;50.772;19.670;2024-03-23T06:26:30;97879.97;;;7.47
22269;BMP280;11303;50.772;19.670;2024-03-23T06:28:31;97889.97;;;7.48
22269;BMP280;11303;50.772;19.670;2024-03-23T06:30:31;97883.72;;;7.49
22269;BMP280;11303;50.772;19.670;2024-03-23T06:32:32;97888.13;;;7.49
22269;BMP280;11303;50.772;19.670;2024-03-23T06:34:33;97884.78;;;7.48
22269;BMP280;11303;50.772;19.670;2024-03-23T06:36:34;97883.72;;;7.49
22269;BMP280;11303;50.772;19.670;2024-03-23T06:38:34;97879.28;;;7.50
22269;BMP280;11303;50.772;19.670;2024-03-23T06:40:36;97880.13;;;7.54
22269;BMP280;11303;50.772;19.670;2024-03-23T06:42:36;97876.44;;;7.55
22269;BMP280;11303;50.772;19.670;2024-03-23T06:44:37;97870.91;;;7.56
22269;BMP280;11303;50.772;19.670;2024-03-23T06:46:38;97859.56;;;7.61
22269;BMP280;11303;50.772;19.670;2024-03-23T06:48:38;97858.16;;;7.64
22269;BMP280;11303;50.772;19.670;2024-03-23T06:50:39;97848.97;;;7.66
22269;BMP280;11303;50.772;19.670;2024-03-23T06:52:39;97855.41;;;7.72
22269;BMP280;11303;50.772;19.670;2024-03-23T06:54:40;97854.78;;;7.79
22269;BMP280;11303;50.772;19.670;2024-03-23T06:56:40;97839.47;;;7.90
22269;BMP280;11303;50.772;19.670;2024-03-23T06:58:41;97829.91;;;7.94
22269;BMP280;11303;50.772;19.670;2024-03-23T07:00:41;97830.25;;;7.92
22269;BMP280;11303;50.772;19.670;2024-03-23T07:02:42;97832.44;;;7.90
22269;BMP280;11303;50.772;19.670;2024-03-23T07:04:44;97824.41;;;7.95
22269;BMP280;11303;50.772;19.670;2024-03-23T07:06:45;97826.38;;;8.02
22269;BMP280;11303;50.772;19.670;2024-03-23T07:08:46;97840.94;;;8.10
22269;BMP280;11303;50.772;19.670;2024-03-23T07:10:46;97834.47;;;8.20
22269;BMP280;11303;50.772;19.670;2024-03-23T07:12:47;97831.19;;;8.23
22269;BMP280;11303;50.772;19.670;2024-03-23T07:14:48;97837.59;;;8.29
22269;BMP280;11303;50.772;19.670;2024-03-23T07:16:48;97831.13;;;8.39
22269;BMP280;11303;50.772;19.670;2024-03-23T07:18:52;97844.19;;;8.46
22269;BMP280;11303;50.772;19.670;2024-03-23T07:20:54;97835.50;;;8.58
22269;BMP280;11303;50.772;19.670;2024-03-23T07:22:55;97843.06;;;8.67
22269;BMP280;11303;50.772;19.670;2024-03-23T07:24:55;97840.19;;;8.72
22269;BMP280;11303;50.772;19.670;2024-03-23T07:26:56;97846.22;;;8.80
22269;BMP280;11303;50.772;19.670;2024-03-23T07:28:58;97844.09;;;8.85
22269;BMP280;11303;50.772;19.670;2024-03-23T07:31:08;97840.47;;;8.90
22269;BMP280;11303;50.772;19.670;2024-03-23T07:33:09;97845.00;;;8.97
22269;BMP280;11303;50.772;19.670;2024-03-23T07:35:09;97842.50;;;9.04
22269;BMP280;11303;50.772;19.670;2024-03-23T07:37:10;97845.75;;;9.24
22269;BMP280;11303;50.772;19.670;2024-03-23T07:39:11;97840.03;;;9.68
22269;BMP280;11303;50.772;19.670;2024-03-23T07:41:15;97842.47;;;10.21
22269;BMP280;11303;50.772;19.670;2024-03-23T07:43:17;97832.06;;;10.66
22269;BMP280;11303;50.772;19.670;2024-03-23T07:45:18;97829.38;;;11.03
22269;BMP280;11303;50.772;19.670;2024-03-23T07:47:18;97843.31;;;11.36
22269;BMP280;11303;50.772;19.670;2024-03-23T07:49:19;97842.34;;;11.84
22269;BMP280;11303;50.772;19.670;2024-03-23T07:51:22;97842.75;;;12.07
22269;BMP280;11303;50.772;19.670;2024-03-23T07:53:23;97846.53;;;12.24
22269;BMP280;11303;50.772;19.670;2024-03-23T07:55:24;97829.03;;;12.18
22269;BMP280;11303;50.772;19.670;2024-03-23T07:57:24;97829.41;;;12.49
22269;BMP280;11303;50.772;19.670;2024-03-23T07:59:25;97828.22;;;13.00
22269;BMP280;11303;50.772;19.670;2024-03-23T08:01:25;97817.22;;;14.11
22269;BMP280;11303;50.772;19.670;2024-03-23T08:03:26;97817.31;;;14.83
22269;BMP280;11303;50.772;19.670;2024-03-23T08:05:27;97818.00;;;14.87
22269;BMP280;11303;50.772;19.670;2024-03-23T08:07:27;97805.25;;;14.93
22269;BMP280;11303;50.772;19.670;2024-03-23T08:09:29;97817.72;;;15.13
22269;BMP280;11303;50.772;19.670;2024-03-23T08:11:30;97813.63;;;15.12
22269;BMP280;11303;50.772;19.670;2024-03-23T08:13:31;97802.28;;;14.91
22269;BMP280;11303;50.772;19.670;2024-03-23T08:15:32;97803.22;;;14.70
22269;BMP280;11303;50.772;19.670;2024-03-23T08:17:36;97806.16;;;14.41
22269;BMP280;11303;50.772;19.670;2024-03-23T08:19:36;97797.00;;;14.19
22269;BMP280;11303;50.772;19.670;2024-03-23T08:21:37;97802.38;;;13.97
22269;BMP280;11303;50.772;19.670;2024-03-23T08:23:37;97786.09;;;13.79
22269;BMP280;11303;50.772;19.670;2024-03-23T08:25:38;97782.97;;;13.39
22269;BMP280;11303;50.772;19.670;2024-03-23T08:27:39;97777.06;;;13.27
22269;BMP280;11303;50.772;19.670;2024-03-23T08:29:39;97762.91;;;13.18
22269;BMP280;11303;50.772;19.670;2024-03-23T08:31:40;97773.00;;;13.16
22269;BMP280;11303;50.772;19.670;2024-03-23T08:33:41;97755.34;;;13.38
22269;BMP280;11303;50.772;19.670;2024-03-23T08:35:53;97753.41;;;13.56
22269;BMP280;11303;50.772;19.670;2024-03-23T08:37:53;97757.28;;;13.90
22269;BMP280;11303;50.772;19.670;2024-03-23T08:39:54;97746.53;;;14.25
22269;BMP280;11303;50.772;19.670;2024-03-23T08:41:54;97746.63;;;14.53
22269;BMP280;11303;50.772;19.670;2024-03-23T08:43:55;97750.34;;;14.90
22269;BMP280;11303;50.772;19.670;2024-03-23T08:46:12;97746.81;;;15.31
22269;BMP280;11303;50.772;19.670;2024-03-23T08:48:13;97730.47;;;15.50
22269;BMP280;11303;50.772;19.670;2024-03-23T08:50:13;97728.41;;;15.61
22269;BMP280;11303;50.772;19.670;2024-03-23T08:52:14;97732.53;;;15.62
22269;BMP280;11303;50.772;19.670;2024-03-23T08:54:14;97729.13;;;15.65
22269;BMP280;11303;50.772;19.670;2024-03-23T08:56:15;97725.69;;;15.45
22269;BMP280;11303;50.772;19.670;2024-03-23T08:58:16;97718.38;;;15.33
22269;BMP280;11303;50.772;19.670;2024-03-23T09:00:18;97713.97;;;15.26
22269;BMP280;11303;50.772;19.670;2024-03-23T09:02:18;97709.97;;;15.18
22269;BMP280;11303;50.772;19.670;2024-03-23T09:04:19;97704.59;;;15.28
22269;BMP280;11303;50.772;19.670;2024-03-23T09:06:19;97689.34;;;15.47
22269;BMP280;11303;50.772;19.670;2024-03-23T09:08:21;97687.50;;;15.71
22269;BMP280;11303;50.772;19.670;2024-03-23T09:10:21;97680.94;;;16.03
22269;BMP280;11303;50.772;19.670;2024-03-23T09:12:23;97669.31;;;16.24
22269;BMP280;11303;50.772;19.670;2024-03-23T09:14:24;97677.00;;;16.15
22269;BMP280;11303;50.772;19.670;2024-03-23T09:16:24;97665.94;;;16.43
22269;BMP280;11303;50.772;19.670;2024-03-23T09:18:25;97662.91;;;16.81
22269;BMP280;11303;50.772;19.670;2024-03-23T09:20:25;97658.91;;;16.93
22269;BMP280;11303;50.772;19.670;2024-03-23T09:22:26;97657.00;;;17.26
22269;BMP280;11303;50.772;19.670;2024-03-23T09:24:26;97656.19;;;17.29
22269;BMP280;11303;50.772;19.670;2024-03-23T09:26:27;97648.03;;;17.40
22269;BMP280;11303;50.772;19.670;2024-03-23T09:28:30;97638.06;;;17.64
22269;BMP280;11303;50.772;19.670;2024-03-23T09:30:35;97641.00;;;17.66
22269;BMP280;11303;50.772;19.670;2024-03-23T09:32:35;97639.97;;;17.64
22269;BMP280;11303;50.772;19.670;2024-03-23T09:34:36;97643.41;;;17.61
22269;BMP280;11303;50.772;19.670;2024-03-23T09:36:36;97639.88;;;17.67
22269;BMP280;11303;50.772;19.670;2024-03-23T09:38:37;97623.34;;;17.96
22269;BMP280;11303;50.772;19.670;2024-03-23T09:40:41;97625.69;;;18.20
22269;BMP280;11303;50.772;19.670;2024-03-23T09:42:42;97608.97;;;18.65
22269;BMP280;11303;50.772;19.670;2024-03-23T09:44:49;97611.28;;;18.75
22269;BMP280;11303;50.772;19.670;2024-03-23T09:46:51;97606.50;;;19.18
22269;BMP280;11303;50.772;19.670;2024-03-23T09:48:51;97594.53;;;19.61
22269;BMP280;11303;50.772;19.670;2024-03-23T09:50:52;97588.34;;;19.86
22269;BMP280;11303;50.772;19.670;2024-03-23T09:52:53;97589.31;;;20.01
22269;BMP280;11303;50.772;19.670;2024-03-23T09:54:53;97581.91;;;20.27
22269;BMP280;11303;50.772;19.670;2024-03-23T09:56:54;97580.69;;;20.69
22269;BMP280;11303;50.772;19.670;2024-03-23T09:59:02;97572.41;;;20.39
22269;BMP280;11303;50.772;19.670;2024-03-23T10:01:03;97566.13;;;20.46
22269;BMP280;11303;50.772;19.670;2024-03-23T10:03:04;97562.78;;;20.73
22269;BMP280;11303;50.772;19.670;2024-03-23T10:05:22;97555.88;;;21.03
22269;BMP280;11303;50.772;19.670;2024-03-23T10:07:23;97551.75;;;21.39
22269;BMP280;11303;50.772;19.670;2024-03-23T10:09:25;97553.53;;;21.75
22269;BMP280;11303;50.772;19.670;2024-03-23T10:11:26;97537.81;;;22.05
22269;BMP280;11303;50.772;19.670;2024-03-23T10:13:28;97528.63;;;21.58
22269;BMP280;11303;50.772;19.670;2024-03-23T10:15:34;97528.88;;;21.60
22269;BMP280;11303;50.772;19.670;2024-03-23T10:17:35;97526.91;;;21.36
22269;BMP280;11303;50.772;19.670;2024-03-23T10:19:38;97529.09;;;21.47
22269;BMP280;11303;50.772;19.670;2024-03-23T10:21:38;97524.28;;;21.36
22269;BMP280;11303;50.772;19.670;2024-03-23T10:23:40;97514.47;;;21.19
22269;BMP280;11303;50.772;19.670;2024-03-23T10:25:41;97517.69;;;21.32
22269;BMP280;11303;50.772;19.670;2024-03-23T10:27:42;97502.97;;;21.40
22269;BMP280;11303;50.772;19.670;2024-03-23T10:29:44;97501.41;;;21.24
22269;BMP280;11303;50.772;19.670;2024-03-23T10:31:45;97495.94;;;21.37
22269;BMP280;11303;50.772;19.670;2024-03-23T10:33:48;97489.28;;;21.51
22269;BMP280;11303;50.772;19.670;2024-03-23T10:35:49;97471.69;;;20.96
22269;BMP280;11303;50.772;19.670;2024-03-23T10:37:51;97478.84;;;21.05
22269;BMP280;11303;50.772;19.670;2024-03-23T10:39:51;97479.84;;;21.26
22269;BMP280;11303;50.772;19.670;2024-03-23T10:41:53;97486.56;;;21.36
22269;BMP280;11303;50.772;19.670;2024-03-23T10:43:55;97480.16;;;21.52
22269;BMP280;11303;50.772;19.670;2024-03-23T10:45:56;97474.28;;;21.57
22269;BMP280;11303;50.772;19.670;2024-03-23T10:47:57;97466.13;;;21.36
22269;BMP280;11303;50.772;19.670;2024-03-23T10:49:57;97461.16;;;20.68
22269;BMP280;11303;50.772;19.670;2024-03-23T10:51:59;97467.47;;;20.71
22269;BMP280;11303;50.772;19.670;2024-03-23T10:54:04;97452.06;;;20.69
22269;BMP280;11303;50.772;19.670;2024-03-23T10:56:06;97448.25;;;20.70
22269;BMP280;11303;50.772;19.670;2024-03-23T10:58:08;97446.00;;;20.97
22269;BMP280;11303;50.772;19.670;2024-03-23T11:00:09;97442.03;;;21.01
22269;BMP280;11303;50.772;19.670;2024-03-23T11:02:20;97440.84;;;21.02
22269;BMP280;11303;50.772;19.670;2024-03-23T11:04:34;97428.53;;;21.08
22269;BMP280;11303;50.772;19.670;2024-03-23T11:06:39;97430.03;;;21.00
22269;BMP280;11303;50.772;19.670;2024-03-23T11:08:43;97425.91;;;20.99
22269;BMP280;11303;50.772;19.670;2024-03-23T11:10:43;97418.31;;;20.83
22269;BMP280;11303;50.772;19.670;2024-03-23T11:12:44;97423.00;;;20.88
22269;BMP280;11303;50.772;19.670;2024-03-23T11:14:46;97413.22;;;21.12
22269;BMP280;11303;50.772;19.670;2024-03-23T11:17:09;97395.13;;;20.87
22269;BMP280;11303;50.772;19.670;2024-03-23T11:21:52;97394.47;;;21.92
22269;BMP280;11303;50.772;19.670;2024-03-23T11:23:53;97384.50;;;22.26
22269;BMP280;11303;50.772;19.670;2024-03-23T11:25:54;97382.19;;;22.04
22269;BMP280;11303;50.772;19.670;2024-03-23T11:28:06;97382.13;;;21.89
22269;BMP280;11303;50.772;19.670;2024-03-23T11:32:11;97363.03;;;21.70
22269;BMP280;11303;50.772;19.670;2024-03-23T11:34:15;97355.63;;;21.59
22269;BMP280;11303;50.772;19.670;2024-03-23T11:36:19;97352.41;;;21.79
22269;BMP280;11303;50.772;19.670;2024-03-23T11:38:19;97331.19;;;21.88
22269;BMP280;11303;50.772;19.670;2024-03-23T11:40:20;97327.91;;;21.69
22269;BMP280;11303;50.772;19.670;2024-03-23T11:42:21;97323.78;;;21.53
22269;BMP280;11303;50.772;19.670;2024-03-23T11:44:26;97310.94;;;21.37
22269;BMP280;11303;50.772;19.670;2024-03-23T11:46:26;97311.66;;;21.62
22269;BMP280;11303;50.772;19.670;2024-03-23T11:48:27;97308.81;;;21.89
22269;BMP280;11303;50.772;19.670;2024-03-23T11:50:28;97294.03;;;22.12
22269;BMP280;11303;50.772;19.670;2024-03-23T11:52:29;97290.44;;;21.56
22269;BMP280;11303;50.772;19.670;2024-03-23T11:54:30;97296.25;;;21.60
22269;BMP280;11303;50.772;19.670;2024-03-23T11:56:30;97292.97;;;21.50
22269;BMP280;11303;50.772;19.670;2024-03-23T11:58:31;97281.94;;;21.28
22269;BMP280;11303;50.772;19.670;2024-03-23T12:00:34;97270.88;;;21.14
22269;BMP280;11303;50.772;19.670;2024-03-23T12:02:34;97266.72;;;21.47
22269;BMP280;11303;50.772;19.670;2024-03-23T12:04:35;97253.00;;;21.33
22269;BMP280;11303;50.772;19.670;2024-03-23T12:06:38;97252.47;;;21.44
22269;BMP280;11303;50.772;19.670;2024-03-23T12:08:39;97243.75;;;21.53
22269;BMP280;11303;50.772;19.670;2024-03-23T12:10:48;97234.47;;;21.57
22269;BMP280;11303;50.772;19.670;2024-03-23T12:13:01;97231.34;;;21.44
22269;BMP280;11303;50.772;19.670;2024-03-23T12:15:06;97225.41;;;21.34
22269;BMP280;11303;50.772;19.670;2024-03-23T12:17:12;97211.88;;;21.32
22269;BMP280;11303;50.772;19.670;2024-03-23T12:19:12;97212.75;;;21.39
22269;BMP280;11303;50.772;19.670;2024-03-23T12:21:13;97211.75;;;21.51
22269;BMP280;11303;50.772;19.670;2024-03-23T12:23:13;97208.69;;;21.67
22269;BMP280;11303;50.772;19.670;2024-03-23T12:25:14;97212.97;;;21.79
22269;BMP280;11303;50.772;19.670;2024-03-23T12:27:15;97185.63;;;21.83
22269;BMP280;11303;50.772;19.670;2024-03-23T12:29:15;97172.00;;;21.60
22269;BMP280;11303;50.772;19.670;2024-03-23T12:31:16;97191.34;;;21.12
22269;BMP280;11303;50.772;19.670;2024-03-23T12:33:17;97177.28;;;20.58